Maryland METAR Reports


Distance/Direction noted is from Ellicott City, MD as the crow flies

KCBE - Cumberland - 118 miles WNW
Updated: Sat, 08/02/2014 4:23 AM
Clear
Clear
 Wind from NNW
Wind: NNW 3 mph
Temperature: 63°F
Dew Point: 61°F
Humidity: 94%
Barometer: 30.17 inHg
Clouds: Clear
Visibility: 7 miles
2014/08/02 08:23 KCBE 020823Z AUTO 33003KT 7SM CLR 17/16 A3017 RMK AO1
KHGR - Hagerstown - 57 miles NW
Updated: Sat, 08/02/2014 3:53 AM
Overcast
Overcast
 Wind from calm
Wind: Calm
Temperature: 66°F
Dew Point: 59°F
Humidity: 78%
Barometer: 30.15 inHg
Clouds: Overcast
Visibility: 10 miles
Cloud Details: Overcast 3600 ft
2014/08/02 07:53 KHGR 020753Z AUTO 00000KT 10SM OVC036 19/15 A3015 RMK AO2 SLP216 T01940150
 
KFDK - Frederick - 34 miles NW
Updated: Sat, 08/02/2014 4:20 AM
Overcast
Overcast
 Wind from calm
Wind: Calm
Temperature: 64°F
Dew Point: 64°F
Humidity: 100%
Barometer: 30.16 inHg
Clouds: Overcast
Visibility: 10 miles
Cloud Details: Partly Cloudy 6000 ft
Overcast 9000 ft
2014/08/02 08:20 KFDK 020820Z AUTO 00000KT 10SM SCT060 OVC090 18/18 A3016 RMK AO2
KGAI - Gaithersburg - 26 miles SW
Updated: Sat, 08/02/2014 4:15 AM
Overcast
Overcast
 Wind from calm
Wind: Calm
Temperature: 63°F
Dew Point: 61°F
Humidity: 94%
Barometer: 30.17 inHg
Clouds: Overcast
Visibility: 7 miles
Cloud Details: Overcast 5000 ft
2014/08/02 08:15 KGAI 020815Z AUTO 00000KT 7SM OVC050 17/16 A3017 RMK AO1
 
KBWI - BWI Airport - 15 miles SE
Updated: Sat, 08/02/2014 4:21 AM
Overcast
Overcast
 Wind from N
Wind: N 5 mph
Temperature: 64°F
Dew Point: 63°F
Humidity: 94%
Barometer: 30.12 inHg
Clouds: Overcast
Visibility: 8 miles
Cloud Details: Mostly Cloudy 2900 ft
Mostly Cloudy 3700 ft
Overcast 12000 ft
2014/08/02 08:21 KBWI 020821Z 35004KT 8SM BKN029 BKN037 OVC120 18/17 A3012 RMK AO2 RAE05 P0000
KNAK - Annapolis - 32 miles SSE
Updated: Sat, 08/02/2014 3:54 AM
Light rain, Overcast
Light rain, Overcast
 Wind from NE
Wind: NE 6 mph
Temperature: 68°F
Dew Point: 64°F
Humidity: 88%
Barometer: 30.11 inHg
Summary: Light Rain
Clouds: Overcast
Visibility: 8 miles
Cloud Details: Overcast 2500 ft
2014/08/02 07:54 KNAK 020754Z AUTO 05005KT 8SM -RA OVC025 20/18 A3011 RMK AO2 SLP199 P0003 T02000178
 
KESN - Easton - 63 miles SE
Updated: Sat, 08/02/2014 4:34 AM
Light rain, Mostly cloudy
Light rain, Mostly cloudy
 Wind from calm
Wind: Calm
Temperature: 64°F
Dew Point: 64°F
Humidity: 100%
Barometer: 30.13 inHg
Summary: Light Rain
Clouds: Mostly Cloudy
Visibility: 5 miles
Cloud Details: Partly Cloudy 500 ft
Partly Cloudy 2200 ft
Mostly Cloudy 4300 ft
2014/08/02 08:34 KESN 020834Z AUTO 00000KT 5SM -RA SCT005 SCT022 BKN043 18/18 A3013 RMK AO2 P0001 T01810181
KSBY - Salisbury - 112 miles SE
Updated: Sat, 08/02/2014 4:29 AM
Light rain, Mist, Overcast
Light rain, Mist, Overcast
 Wind from NE
Wind: NE 8 mph
Temperature: 64°F
Dew Point: 61°F
Humidity: 88%
Barometer: 30.08 inHg
Summary: Light rain, Mist
Clouds: Overcast
Visibility: 4 miles
Cloud Details: Partly Cloudy 1800 ft
Overcast 3400 ft
2014/08/02 08:29 KSBY 020829Z AUTO 04007KT 4SM -RA BR SCT018 OVC034 18/16 A3008 RMK AO2 P0033